Time;durP1;ratioP1;P1;durP2;ratioP2;P2;SDS_P1;SDS_P2;PMS_P1;PMS_P2;Temp;Humidity;BMP_temperature;BMP_pressure;BME280_temperature;BME280_humidity;BME280_pressure;Samples;Min_cycle;Max_cycle;Signal;HPM_P1;HPM_P2
2022/07/26 05:29:04;;;;;;;;;4.00;3.00;;;;;21.33;55.58;101635.59;2380812;28;46348;-91
2022/07/26 05:30:14;;;;;;;;;3.00;3.00;;;;;21.39;55.62;101638.78;2386371;28;46375;-88
2022/07/26 05:31:25;;;;;;;;;7.25;2.50;;;;;21.44;55.80;101639.34;2383137;28;44803;-88
2022/07/26 05:32:36;;;;;;;;;2.00;2.00;;;;;21.48;55.51;101638.22;2374379;28;47294;-86
2022/07/26 05:33:46;;;;;;;;;1.25;1.25;;;;;21.49;55.85;101639.91;2376022;28;45191;-82
2022/07/26 05:34:56;;;;;;;;;3.00;1.00;;;;;21.48;55.67;101636.38;2383352;28;46430;-85
2022/07/26 05:36:07;;;;;;;;;3.75;3.00;;;;;21.45;55.35;101635.72;2375643;28;45179;-85
2022/07/26 05:37:17;;;;;;;;;1.25;1.25;;;;;21.45;55.02;101643.75;2378972;28;45317;-85
2022/07/26 05:38:28;;;;;;;;;4.00;2.00;;;;;21.44;55.83;101639.34;2376434;28;45158;-84
2022/07/26 05:39:38;;;;;;;;;2.50;2.50;;;;;21.45;55.20;101641.09;2381458;28;45455;-85
2022/07/26 05:40:49;;;;;;;;;2.75;2.75;;;;;21.44;55.41;101650.03;2384873;28;45143;-84
2022/07/26 05:41:59;;;;;;;;;2.00;2.00;;;;;21.45;55.27;101647.28;2385082;28;45415;-84
2022/07/26 05:43:09;;;;;;;;;3.00;2.75;;;;;21.46;55.66;101634.75;2382518;28;45211;-84
2022/07/26 05:44:22;;;;;;;;;2.00;2.00;;;;;21.45;55.57;101638.41;2379526;28;46233;-84
2022/07/26 05:45:32;;;;;;;;;2.00;1.25;;;;;21.44;56.05;101634.00;2376115;28;45528;-85
2022/07/26 05:46:42;;;;;;;;;2.50;1.25;;;;;21.39;55.69;101636.13;2375527;28;45364;-85
2022/07/26 05:47:53;;;;;;;;;0.50;0.50;;;;;21.30;56.05;101630.44;2382082;28;45504;-85
2022/07/26 05:49:04;;;;;;;;;4.00;1.75;;;;;21.27;56.36;101637.78;2383270;28;47096;-85
2022/07/26 05:50:15;;;;;;;;;3.00;2.00;;;;;21.26;56.31;101636.91;2386773;28;45479;-86
2022/07/26 05:51:25;;;;;;;;;2.00;2.00;;;;;21.27;55.88;101638.63;2390799;28;47337;-85
2022/07/26 05:52:35;;;;;;;;;3.25;2.00;;;;;21.26;56.58;101642.25;2373103;28;45279;-87
2022/07/26 05:53:46;;;;;;;;;3.75;2.00;;;;;21.22;56.38;101638.06;2373079;28;46542;-87
2022/07/26 05:54:56;;;;;;;;;3.50;2.75;;;;;21.18;56.38;101637.44;2377896;28;45450;-88
2022/07/26 05:56:07;;;;;;;;;4.25;1.25;;;;;21.16;56.85;101635.81;2384667;28;47151;-86
2022/07/26 05:57:17;;;;;;;;;2.25;2.00;;;;;21.13;56.62;101643.06;2375227;28;45299;-87
2022/07/26 05:58:27;;;;;;;;;3.75;3.00;;;;;21.14;56.54;101634.09;2377534;28;47913;-87
2022/07/26 05:59:38;;;;;;;;;4.00;2.00;;;;;21.14;56.13;101639.44;2385076;28;45281;-84
2022/07/26 06:00:48;;;;;;;;;4.00;3.50;;;;;21.16;56.15;101641.16;2385357;28;45408;-89
2022/07/26 06:01:58;;;;;;;;;4.00;2.00;;;;;21.16;56.52;101639.34;2383535;28;45430;-87
2022/07/26 06:03:21;;;;;;;;;2.00;2.00;;;;;21.14;57.04;101641.22;2385057;28;45390;-85
2022/07/26 06:04:31;;;;;;;;;4.50;2.25;;;;;21.07;57.35;101642.59;2380235;28;45782;-85
2022/07/26 06:05:41;;;;;;;;;4.00;2.25;;;;;21.05;57.01;101645.38;2382376;28;47929;-87
2022/07/26 06:06:53;;;;;;;;;3.25;3.25;;;;;21.02;56.76;101638.41;2383623;28;44775;-89
2022/07/26 06:08:04;;;;;;;;;3.00;3.00;;;;;21.05;56.81;101642.69;2384579;28;45556;-82
2022/07/26 06:09:14;;;;;;;;;2.00;2.00;;;;;21.05;56.74;101636.47;2384067;28;45282;-84
2022/07/26 06:10:25;;;;;;;;;3.00;2.50;;;;;21.08;56.82;101639.84;2381042;28;45399;-84
2022/07/26 06:11:35;;;;;;;;;1.00;1.00;;;;;21.09;56.29;101646.88;2384009;28;45246;-84
2022/07/26 06:12:45;;;;;;;;;3.50;2.75;;;;;21.12;56.40;101640.47;2381401;28;45612;-85
2022/07/26 06:13:56;;;;;;;;;3.50;3.25;;;;;21.17;57.07;101649.06;2382823;28;45229;-86
2022/07/26 06:15:06;;;;;;;;;3.00;2.25;;;;;21.18;56.26;101648.13;2381479;28;46232;-85
2022/07/26 06:16:17;;;;;;;;;3.50;3.00;;;;;21.23;56.47;101653.16;2383872;28;44805;-85
2022/07/26 06:17:28;;;;;;;;;2.00;2.00;;;;;21.22;56.27;101651.44;2380761;28;45393;-84
2022/07/26 06:18:39;;;;;;;;;4.50;3.00;;;;;21.23;56.65;101654.03;2384235;28;45187;-85
2022/07/26 06:19:49;;;;;;;;;3.00;3.00;;;;;21.26;56.46;101655.63;2374468;28;47502;-85
2022/07/26 06:21:00;;;;;;;;;3.00;3.00;;;;;21.28;56.31;101650.19;2376083;28;45362;-85
2022/07/26 06:22:10;;;;;;;;;2.25;2.00;;;;;21.32;56.68;101655.25;2370158;28;47221;-85
2022/07/26 06:23:21;;;;;;;;;6.00;3.00;;;;;21.34;56.59;101656.00;2367242;28;45260;-85
2022/07/26 06:24:31;;;;;;;;;4.00;2.00;;;;;21.40;56.36;101661.91;2376204;28;46111;-85
2022/07/26 06:25:41;;;;;;;;;4.50;2.75;;;;;21.42;56.06;101660.84;2384558;28;45388;-85
2022/07/26 06:26:54;;;;;;;;;4.00;3.00;;;;;21.45;55.81;101662.47;2383920;28;45808;-84
2022/07/26 06:28:07;;;;;;;;;3.00;2.00;;;;;21.47;56.28;101664.09;2383638;28;45330;-85
2022/07/26 06:29:17;;;;;;;;;3.00;3.00;;;;;21.50;56.22;101668.38;2383467;28;46455;-84
2022/07/26 06:30:28;;;;;;;;;3.00;2.00;;;;;21.48;56.04;101665.78;2380848;28;45286;-84
2022/07/26 06:31:38;;;;;;;;;2.00;2.00;;;;;21.50;55.88;101668.38;2376307;28;45433;-86
2022/07/26 06:32:48;;;;;;;;;2.50;2.50;;;;;21.55;55.57;101662.72;2383839;28;45437;-84
2022/07/26 06:33:59;;;;;;;;;6.25;2.75;;;;;21.57;56.34;101668.84;2387559;28;45749;-83
2022/07/26 06:35:11;;;;;;;;;4.25;3.50;;;;;21.55;55.59;101668.94;2384620;28;45202;-87
2022/07/26 06:36:21;;;;;;;;;2.00;2.00;;;;;21.55;55.79;101671.63;2375524;28;46401;-85
2022/07/26 06:37:35;;;;;;;;;1.50;1.50;;;;;21.55;55.95;101668.06;2376053;28;45334;-85
2022/07/26 06:38:46;;;;;;;;;3.00;3.00;;;;;21.54;55.74;101667.22;2369829;28;46003;-86
2022/07/26 06:39:56;;;;;;;;;2.50;2.00;;;;;21.56;55.86;101670.63;2375088;28;44851;-86
2022/07/26 06:41:06;;;;;;;;;3.50;3.00;;;;;21.58;55.96;101671.41;2373133;28;47218;-86
2022/07/26 06:42:17;;;;;;;;;7.00;3.00;;;;;21.60;55.51;101668.63;2372795;28;44631;-84
2022/07/26 06:43:27;;;;;;;;;3.25;3.00;;;;;21.63;55.61;101664.91;2381089;28;46593;-86
2022/07/26 06:44:38;;;;;;;;;4.00;2.00;;;;;21.64;56.42;101671.94;2383082;28;45520;-86
2022/07/26 06:45:48;;;;;;;;;4.75;3.25;;;;;21.63;55.78;101670.25;2372513;28;47176;-86
2022/07/26 06:46:58;;;;;;;;;4.25;2.00;;;;;21.63;56.22;101664.91;2375178;28;45416;-87
2022/07/26 06:48:09;;;;;;;;;2.50;2.00;;;;;21.65;56.29;101681.72;2371167;28;48115;-87
2022/07/26 06:49:19;;;;;;;;;2.75;2.00;;;;;21.66;55.68;101667.34;2373113;28;44797;-84
2022/07/26 06:50:30;;;;;;;;;3.00;2.75;;;;;21.66;56.04;101670.03;2374453;28;47349;-88
2022/07/26 06:51:40;;;;;;;;;4.25;2.75;;;;;21.64;55.84;101672.81;2364332;28;45537;-85
2022/07/26 06:52:50;;;;;;;;;5.25;3.75;;;;;21.62;55.75;101669.38;2368485;28;46498;-86
2022/07/26 06:54:02;;;;;;;;;2.25;2.25;;;;;21.56;55.92;101667.97;2382136;28;45441;-86
2022/07/26 06:55:12;;;;;;;;;4.00;2.75;;;;;21.51;56.01;101666.56;2383551;28;45503;-84
2022/07/26 06:56:23;;;;;;;;;2.00;2.00;;;;;21.51;56.49;101669.25;2384516;28;45940;-84
2022/07/26 06:57:34;;;;;;;;;2.00;2.00;;;;;21.50;56.42;101670.19;2382542;28;46125;-84
2022/07/26 06:58:46;;;;;;;;;9.00;4.00;;;;;21.50;56.13;101665.72;2375300;28;45495;-84
2022/07/26 06:59:56;;;;;;;;;3.50;2.00;;;;;21.53;56.45;101670.00;2384390;28;45316;-84
2022/07/26 07:01:07;;;;;;;;;3.25;3.00;;;;;21.54;56.45;101667.22;2382554;28;45263;-84
2022/07/26 07:02:17;;;;;;;;;3.00;2.00;;;;;21.55;55.87;101673.44;2382469;28;47995;-84
2022/07/26 07:03:27;;;;;;;;;3.00;3.00;;;;;21.59;55.92;101675.81;2383768;28;44747;-84
2022/07/26 07:04:38;;;;;;;;;2.50;2.25;;;;;21.65;56.03;101677.22;2384307;28;45519;-83
2022/07/26 07:05:48;;;;;;;;;2.50;2.50;;;;;21.70;56.29;101677.75;2381847;28;45476;-84
2022/07/26 07:07:04;;;;;;;;;2.75;2.00;;;;;21.74;56.04;101674.88;2378192;28;45247;-83
2022/07/26 07:08:14;;;;;;;;;2.50;1.75;;;;;21.74;55.76;101673.06;2377854;28;45481;-84
2022/07/26 07:09:25;;;;;;;;;3.00;3.00;;;;;21.76;55.91;101676.50;2381315;28;45506;-82
2022/07/26 07:10:35;;;;;;;;;2.00;2.00;;;;;21.83;55.68;101681.47;2379166;28;45559;-84
2022/07/26 07:11:48;;;;;;;;;2.50;2.25;;;;;21.89;55.91;101675.72;2380345;28;45479;-84
2022/07/26 07:12:58;;;;;;;;;4.00;3.00;;;;;21.95;55.62;101674.47;2373491;28;45339;-84
2022/07/26 07:14:08;;;;;;;;;3.00;2.75;;;;;21.99;55.43;101676.81;2373750;28;47879;-84
2022/07/26 07:15:19;;;;;;;;;1.00;1.00;;;;;22.03;55.72;101675.66;2374550;28;45272;-84
2022/07/26 07:16:29;;;;;;;;;6.75;2.00;;;;;22.09;55.43;101679.72;2382193;28;45400;-83
2022/07/26 07:17:39;;;;;;;;;2.00;2.00;;;;;22.12;54.96;101676.84;2382581;28;46836;-83
2022/07/26 07:18:50;;;;;;;;;3.25;3.00;;;;;22.11;55.13;101674.28;2379847;28;46422;-84
2022/07/26 07:20:02;;;;;;;;;2.50;2.00;;;;;22.14;55.24;101682.09;2384396;28;44767;-84
2022/07/26 07:21:13;;;;;;;;;2.00;2.00;;;;;22.17;55.54;101681.91;2383547;28;48095;-84
2022/07/26 07:22:23;;;;;;;;;2.00;2.00;;;;;22.19;54.90;101679.09;2383218;28;45764;-84
2022/07/26 07:23:34;;;;;;;;;0.25;0.25;;;;;22.19;54.65;101688.00;2381109;28;46362;-84
2022/07/26 07:24:44;;;;;;;;;3.00;2.00;;;;;22.20;55.13;101680.84;2371537;28;45433;-84
2022/07/26 07:25:55;;;;;;;;;2.50;2.00;;;;;22.21;55.32;101686.06;2365639;28;46162;-84
2022/07/26 07:27:05;;;;;;;;;2.00;2.00;;;;;22.24;55.06;101691.22;2373505;28;45385;-84
2022/07/26 07:28:15;;;;;;;;;5.75;3.00;;;;;22.24;55.13;101685.88;2381757;28;46346;-84
2022/07/26 07:29:26;;;;;;;;;2.50;2.00;;;;;22.28;54.61;101685.63;2377810;28;45400;-85
2022/07/26 07:30:36;;;;;;;;;5.50;3.25;;;;;22.30;54.88;101679.22;2384513;28;45286;-84
2022/07/26 07:31:47;;;;;;;;;4.00;3.00;;;;;22.32;54.56;101687.16;2383742;28;45384;-83
2022/07/26 07:32:58;;;;;;;;;2.50;2.50;;;;;22.26;54.52;101681.25;2379603;28;45663;-83
2022/07/26 07:34:08;;;;;;;;;2.75;2.00;;;;;22.24;54.35;101685.88;2381093;28;45403;-84
2022/07/26 07:35:18;;;;;;;;;3.25;3.00;;;;;22.25;54.90;101684.88;2383494;28;45345;-84
2022/07/26 07:36:29;;;;;;;;;2.00;2.00;;;;;22.25;54.56;101690.25;2384370;28;45239;-84
2022/07/26 07:37:39;;;;;;;;;2.75;2.75;;;;;22.28;54.55;101685.63;2383901;28;45254;-84
2022/07/26 07:38:49;;;;;;;;;4.00;2.00;;;;;22.26;54.74;101681.25;2384431;28;44593;-84
2022/07/26 07:40:04;;;;;;;;;2.00;2.00;;;;;22.29;54.44;101688.22;2383295;28;45188;-83
2022/07/26 07:41:14;;;;;;;;;5.00;2.00;;;;;22.35;54.80;101689.63;2376314;28;45274;-84
2022/07/26 07:42:24;;;;;;;;;1.25;1.25;;;;;22.39;54.88;101683.09;2377170;28;45387;-85
2022/07/26 07:43:35;;;;;;;;;8.00;3.50;;;;;22.45;54.69;101682.66;2384216;28;44735;-84
2022/07/26 07:44:45;;;;;;;;;2.00;2.00;;;;;22.48;53.91;101687.81;2378603;28;46010;-84
2022/07/26 07:45:56;;;;;;;;;4.50;2.75;;;;;22.51;54.64;101685.88;2379654;28;44714;-84
2022/07/26 07:47:07;;;;;;;;;2.25;1.50;;;;;22.51;54.50;101686.75;2378515;28;45450;-83
2022/07/26 07:48:18;;;;;;;;;3.00;2.75;;;;;22.51;54.39;101689.44;2382714;28;45207;-84
2022/07/26 07:49:28;;;;;;;;;3.25;3.25;;;;;22.48;53.94;101690.50;2377790;28;45303;-84
2022/07/26 07:50:38;;;;;;;;;3.00;2.00;;;;;22.49;54.08;101686.84;2381300;28;44696;-84
2022/07/26 07:51:49;;;;;;;;;3.50;1.50;;;;;22.49;54.22;101689.50;2384096;28;45384;-84
2022/07/26 07:52:59;;;;;;;;;4.25;4.00;;;;;22.52;54.50;101690.28;2382517;28;45330;-83
2022/07/26 07:54:09;;;;;;;;;5.25;3.50;;;;;22.53;54.16;101681.28;2381265;28;45722;-85
2022/07/26 07:55:20;;;;;;;;;3.25;3.25;;;;;22.56;54.22;101689.09;2384593;28;45120;-86
2022/07/26 07:56:30;;;;;;;;;3.25;3.25;;;;;22.59;53.73;101678.19;2383449;28;47234;-84
2022/07/26 07:57:40;;;;;;;;;4.00;2.75;;;;;22.59;54.03;101686.22;2384572;28;45373;-84
2022/07/26 07:58:51;;;;;;;;;2.25;2.25;;;;;22.59;53.83;101683.53;2373882;28;48293;-84
2022/07/26 08:00:03;;;;;;;;;3.00;3.00;;;;;22.62;53.90;101683.31;2376457;28;45443;-84
2022/07/26 08:01:14;;;;;;;;;2.75;2.75;;;;;22.65;53.63;101682.22;2384195;28;47010;-84
2022/07/26 08:02:24;;;;;;;;;2.50;2.50;;;;;22.66;53.61;101683.97;2383030;28;45243;-83
2022/07/26 08:03:35;;;;;;;;;3.00;3.00;;;;;22.62;53.42;101685.97;2381291;28;46166;-84
2022/07/26 08:04:45;;;;;;;;;2.00;2.00;;;;;22.56;53.57;101687.28;2375493;28;45503;-84
2022/07/26 08:05:55;;;;;;;;;2.00;2.00;;;;;22.51;53.91;101689.44;2377500;28;46724;-85
2022/07/26 08:07:06;;;;;;;;;4.50;4.50;;;;;22.44;53.95;101682.78;2369388;28;45208;-84
2022/07/26 08:08:17;;;;;;;;;3.00;3.00;;;;;22.39;54.36;101683.09;2370103;28;45465;-83
2022/07/26 08:09:28;;;;;;;;;3.00;3.00;;;;;22.40;54.15;101682.13;2376242;28;45312;-84
2022/07/26 08:10:38;;;;;;;;;3.25;2.00;;;;;22.40;53.88;101692.84;2377547;28;45273;-84
2022/07/26 08:11:49;;;;;;;;;3.25;2.00;;;;;22.41;53.77;101691.88;2379472;28;45343;-84
2022/07/26 08:12:59;;;;;;;;;3.00;3.00;;;;;22.42;53.48;101687.41;2378364;28;45503;-84
2022/07/26 08:14:09;;;;;;;;;2.25;2.25;;;;;22.42;53.80;101685.53;2381306;28;45239;-84
2022/07/26 08:15:22;;;;;;;;;1.25;1.00;;;;;22.42;53.46;101687.41;2379755;28;46416;-85
2022/07/26 08:16:32;;;;;;;;;2.50;2.00;;;;;22.43;53.72;101684.59;2374413;28;45420;-85
2022/07/26 08:17:43;;;;;;;;;3.25;3.25;;;;;22.44;54.12;101680.09;2376417;28;46210;-85
2022/07/26 08:18:53;;;;;;;;;3.00;3.00;;;;;22.46;53.75;101684.41;2374210;28;45268;-85
2022/07/26 08:20:04;;;;;;;;;3.00;3.00;;;;;22.49;54.14;101683.31;2375168;28;45357;-85
2022/07/26 08:21:15;;;;;;;;;3.75;3.75;;;;;22.55;53.72;101698.09;2383629;28;45528;-85
2022/07/26 08:22:25;;;;;;;;;2.25;2.25;;;;;22.58;53.56;101690.72;2384158;28;45333;-85
2022/07/26 08:23:36;;;;;;;;;3.50;3.00;;;;;22.62;53.66;101688.66;2369816;28;45330;-85
2022/07/26 08:24:46;;;;;;;;;4.25;2.00;;;;;22.66;53.36;101690.19;2375694;28;45319;-84
2022/07/26 08:25:57;;;;;;;;;3.50;3.00;;;;;22.73;53.31;101695.13;2384335;28;45235;-85
2022/07/26 08:27:07;;;;;;;;;3.50;3.00;;;;;22.71;52.81;101697.94;2373420;28;47960;-84
2022/07/26 08:28:18;;;;;;;;;3.00;2.00;;;;;22.67;52.42;101699.06;2365135;28;44711;-84
2022/07/26 08:29:28;;;;;;;;;1.75;1.75;;;;;22.62;52.67;101699.38;2376381;28;45294;-84
2022/07/26 08:30:38;;;;;;;;;2.50;2.00;;;;;22.55;52.90;101692.75;2387031;28;44715;-84
2022/07/26 08:31:49;;;;;;;;;3.00;3.00;;;;;22.52;52.59;101693.81;2377578;28;45339;-85
2022/07/26 08:32:59;;;;;;;;;4.75;2.50;;;;;22.52;52.65;101698.31;2383264;28;44833;-84
2022/07/26 08:34:10;;;;;;;;;3.25;3.00;;;;;22.54;53.36;101701.75;2383395;28;47091;-85
2022/07/26 08:35:20;;;;;;;;;2.00;2.00;;;;;22.61;52.65;101700.38;2376476;28;45659;-84
2022/07/26 08:36:31;;;;;;;;;1.75;1.00;;;;;22.68;52.83;101700.78;2383211;28;45484;-85
2022/07/26 08:37:41;;;;;;;;;4.25;2.75;;;;;22.74;52.81;101702.22;2380562;28;45422;-84
2022/07/26 08:38:51;;;;;;;;;4.00;3.50;;;;;22.77;52.84;101699.31;2382951;28;46424;-84
2022/07/26 08:40:03;;;;;;;;;5.00;1.00;;;;;22.82;52.55;101699.84;2365466;28;45449;-85
2022/07/26 08:41:13;;;;;;;;;3.50;2.25;;;;;22.85;51.92;101696.94;2374792;28;48361;-85
2022/07/26 08:42:24;;;;;;;;;3.75;2.00;;;;;22.87;52.00;101691.47;2370451;28;44780;-85
2022/07/26 08:43:34;;;;;;;;;1.50;1.50;;;;;22.89;51.23;101692.25;2376126;28;45306;-85
2022/07/26 08:44:46;;;;;;;;;3.00;3.00;;;;;22.88;51.86;101698.56;2383297;28;45516;-84
2022/07/26 08:46:01;;;;;;;;;3.00;2.00;;;;;22.87;52.16;101703.06;2378109;28;45373;-85
2022/07/26 08:47:15;;;;;;;;;2.00;2.00;;;;;22.88;51.80;101698.56;2382439;28;45374;-84
2022/07/26 08:48:25;;;;;;;;;2.00;1.00;;;;;22.90;51.95;101696.63;2383546;28;46374;-84
2022/07/26 08:49:36;;;;;;;;;3.00;3.00;;;;;22.91;51.93;101703.72;2379990;28;45440;-84
2022/07/26 08:50:47;;;;;;;;;3.50;3.50;;;;;22.90;52.58;101702.84;2380410;28;45535;-84
2022/07/26 08:51:58;;;;;;;;;2.00;2.00;;;;;22.95;52.33;101705.19;2377188;28;45460;-84
2022/07/26 08:53:11;;;;;;;;;4.50;2.50;;;;;23.02;52.13;101701.13;2381018;28;46219;-85
2022/07/26 08:54:22;;;;;;;;;3.00;2.25;;;;;23.08;52.36;101699.81;2385870;28;45372;-85
2022/07/26 08:55:32;;;;;;;;;2.25;2.25;;;;;23.11;51.50;101696.91;2382623;28;45400;-84
2022/07/26 08:56:51;;;;;;;;;6.00;2.50;;;;;23.13;51.78;101704.84;2384118;28;44759;-84
2022/07/26 08:58:02;;;;;;;;;3.75;1.50;;;;;23.13;52.07;101700.34;2383761;28;46272;-84
2022/07/26 08:59:15;;;;;;;;;2.00;2.00;;;;;23.18;51.91;101699.16;2383266;28;45504;-84
2022/07/26 09:00:30;;;;;;;;;3.00;2.25;;;;;23.23;51.92;101705.91;2381863;28;46675;-84
2022/07/26 09:01:54;;;;;;;;;1.75;1.75;;;;;23.33;51.95;101703.44;2382972;28;44800;-85
2022/07/26 09:03:04;;;;;;;;;3.00;2.00;;;;;23.36;51.31;101705.03;2374462;28;46264;-84
2022/07/26 09:04:28;;;;;;;;;3.00;3.00;;;;;23.37;51.36;101702.22;2384074;28;44675;-83
2022/07/26 09:05:40;;;;;;;;;3.00;3.00;;;;;23.34;51.13;101699.75;2383887;28;46443;-84
2022/07/26 09:07:05;;;;;;;;;4.00;2.50;;;;;23.27;51.56;101699.34;2383818;28;45218;-85
2022/07/26 09:08:27;;;;;;;;;2.75;2.50;;;;;23.29;51.41;101703.72;2382603;28;46445;-84
2022/07/26 09:09:54;;;;;;;;;4.00;2.50;;;;;23.30;51.34;101703.63;2380468;28;45548;-85
2022/07/26 09:11:23;;;;;;;;;4.50;4.25;;;;;23.31;50.92;101708.00;2380118;28;45464;-84
2022/07/26 09:12:34;;;;;;;;;2.75;2.75;;;;;23.27;50.97;101706.53;2382597;28;45326;-84
2022/07/26 09:13:52;;;;;;;;;3.00;2.00;;;;;23.28;51.50;101708.25;2383167;28;45504;-84
2022/07/26 09:15:05;;;;;;;;;5.00;2.75;;;;;23.33;51.39;101713.28;2373806;28;45884;-84
2022/07/26 09:16:15;;;;;;;;;3.00;3.00;;;;;23.31;51.02;101710.69;2375860;28;47470;-85
2022/07/26 09:17:47;;;;;;;;;3.75;3.00;;;;;23.30;50.42;101714.38;2380843;28;45314;-84
2022/07/26 09:19:27;;;;;;;;;1.25;1.25;;;;;23.16;50.76;101718.88;2380777;28;45271;-84
2022/07/26 09:20:45;;;;;;;;;1.00;1.00;;;;;23.04;50.85;101717.94;2366157;28;45294;-84
2022/07/26 09:22:06;;;;;;;;;2.00;2.00;;;;;22.94;50.84;101719.56;2364757;28;46212;-85
2022/07/26 09:23:17;;;;;;;;;4.00;3.75;;;;;22.83;51.23;101728.38;2377777;28;45155;-86
2022/07/26 09:24:42;;;;;;;;;3.25;2.25;;;;;22.76;51.56;101721.72;2382957;28;46375;-84
2022/07/26 09:26:03;;;;;;;;;1.50;1.00;;;;;22.73;51.67;101722.78;2382616;28;44749;-84
2022/07/26 09:27:16;;;;;;;;;2.00;2.00;;;;;22.74;51.60;101726.34;2372063;28;46288;-84
2022/07/26 09:28:29;;;;;;;;;2.00;2.00;;;;;22.77;52.48;101715.38;2373586;28;45647;-84
2022/07/26 09:29:52;;;;;;;;;4.50;2.50;;;;;22.82;51.67;101729.31;2386462;28;45336;-85
2022/07/26 09:31:04;;;;;;;;;4.00;2.00;;;;;22.86;51.59;101727.28;2381624;28;45300;-85
2022/07/26 09:32:23;;;;;;;;;2.75;2.75;;;;;22.88;51.64;101720.88;2383197;28;45518;-83
2022/07/26 09:33:53;;;;;;;;;2.75;2.75;;;;;22.94;51.61;101724.91;2379818;28;44729;-85
2022/07/26 09:35:15;;;;;;;;;3.00;2.25;;;;;22.98;51.55;101721.06;2382964;28;45525;-84
2022/07/26 09:36:26;;;;;;;;;2.00;2.00;;;;;23.03;51.63;101726.97;2382712;28;44810;-83
2022/07/26 09:37:42;;;;;;;;;4.25;2.00;;;;;23.11;51.54;101726.41;2378721;28;46408;-83
2022/07/26 09:39:03;;;;;;;;;1.50;1.50;;;;;23.19;51.58;101723.16;2376167;28;44819;-84
2022/07/26 09:40:16;;;;;;;;;2.50;2.50;;;;;23.29;51.43;101733.22;2376681;28;45749;-83
2022/07/26 09:41:30;;;;;;;;;3.00;2.25;;;;;23.38;51.40;101729.91;2383127;28;45219;-83
2022/07/26 09:43:01;;;;;;;;;2.00;2.00;;;;;23.47;51.16;101731.06;2382494;28;46894;-83
2022/07/26 09:44:23;;;;;;;;;2.00;1.50;;;;;23.57;50.89;101731.25;2380066;28;45353;-85
2022/07/26 09:45:35;;;;;;;;;3.00;3.00;;;;;23.67;50.24;101734.13;2375604;28;45429;-85
2022/07/26 09:46:56;;;;;;;;;2.75;2.00;;;;;23.74;50.26;101730.03;2387661;28;45606;-85
2022/07/26 09:48:10;;;;;;;;;2.00;2.00;;;;;23.81;50.06;101733.09;2372654;28;47148;-84
2022/07/26 09:49:21;;;;;;;;;3.50;3.00;;;;;23.88;49.81;101741.56;2367991;28;45208;-84
2022/07/26 09:50:32;;;;;;;;;3.00;3.00;;;;;23.95;49.45;101740.16;2379267;28;45483;-83
2022/07/26 09:51:46;;;;;;;;;2.00;2.00;;;;;23.96;49.47;101733.78;2383276;28;46905;-84
2022/07/26 09:53:02;;;;;;;;;2.00;2.00;;;;;24.02;49.21;101737.84;2383481;28;45285;-84
2022/07/26 09:54:30;;;;;;;;;3.25;2.25;;;;;24.06;48.74;101733.94;2373249;28;45179;-84
2022/07/26 09:55:43;;;;;;;;;2.00;2.00;;;;;24.10;48.69;101739.97;2378717;28;45206;-84
2022/07/26 09:56:53;;;;;;;;;2.00;2.00;;;;;24.10;48.80;101737.28;2382445;28;45161;-84
2022/07/26 09:58:05;;;;;;;;;3.25;3.00;;;;;24.10;49.07;101731.91;2382297;28;46813;-84
2022/07/26 09:59:18;;;;;;;;;3.00;2.00;;;;;24.17;49.40;101735.84;2383000;28;46865;-83
2022/07/26 10:00:30;;;;;;;;;2.00;1.25;;;;;24.19;49.17;101735.72;2383321;28;46192;-83
2022/07/26 10:01:41;;;;;;;;;2.50;2.50;;;;;24.24;49.23;101739.78;2375209;28;45504;-84
2022/07/26 10:02:52;;;;;;;;;2.75;2.50;;;;;24.27;48.66;101734.16;2378469;28;46357;-83
2022/07/26 10:04:02;;;;;;;;;3.00;3.00;;;;;24.33;48.83;101732.00;2367038;28;45417;-84
2022/07/26 10:05:13;;;;;;;;;3.00;3.00;;;;;24.38;48.80;101737.88;2368801;28;45413;-85
2022/07/26 10:06:23;;;;;;;;;2.00;0.00;;;;;24.43;47.72;101735.69;2382493;28;45258;-84
2022/07/26 10:07:33;;;;;;;;;2.00;2.00;;;;;24.44;47.65;101737.41;2381000;28;45434;-84
2022/07/26 10:08:44;;;;;;;;;2.25;2.25;;;;;24.46;48.20;101743.53;2382840;28;45359;-83
2022/07/26 10:10:03;;;;;;;;;1.00;0.00;;;;;24.48;47.68;101746.94;2383940;28;45447;-86
2022/07/26 10:11:15;;;;;;;;;1.50;1.00;;;;;24.50;46.90;101736.94;2383489;28;45178;-85
2022/07/26 10:12:30;;;;;;;;;1.00;1.00;;;;;24.52;46.52;101752.09;2382972;28;46301;-85
2022/07/26 10:13:40;;;;;;;;;3.00;3.00;;;;;24.50;46.10;101738.75;2384070;28;45256;-86
2022/07/26 10:14:50;;;;;;;;;4.00;1.00;;;;;24.45;46.15;101736.44;2384690;28;45551;-86
2022/07/26 10:16:01;;;;;;;;;2.75;2.00;;;;;24.40;46.52;101738.59;2384853;28;44850;-86
2022/07/26 10:17:32;;;;;;;;;1.00;1.00;;;;;24.35;45.66;101740.78;2374677;28;48093;-86
2022/07/26 10:18:44;;;;;;;;;1.00;1.00;;;;;24.31;46.27;101737.50;2379734;28;44739;-86
2022/07/26 10:20:00;;;;;;;;;2.50;2.50;;;;;24.28;46.04;101733.22;2379128;28;47074;-86
2022/07/26 10:21:31;;;;;;;;;3.00;3.00;;;;;24.22;46.28;101736.34;2370509;28;45398;-87
2022/07/26 10:22:44;;;;;;;;;3.25;3.00;;;;;24.22;46.81;101739.03;2374039;28;46872;-87
2022/07/26 10:23:59;;;;;;;;;3.75;3.75;;;;;24.23;46.20;101743.41;2365906;29;45502;-85
2022/07/26 10:25:15;;;;;;;;;3.00;2.00;;;;;24.24;46.51;101738.91;2367886;28;47730;-86
2022/07/26 10:26:32;;;;;;;;;1.50;1.50;;;;;24.22;46.22;101740.84;2375599;28;44665;-86
2022/07/26 10:27:43;;;;;;;;;3.00;2.75;;;;;24.19;45.41;101741.94;2370217;28;46343;-86
2022/07/26 10:28:54;;;;;;;;;1.75;1.25;;;;;24.16;46.38;101743.03;2368718;28;45569;-86
2022/07/26 10:30:31;;;;;;;;;2.25;1.75;;;;;24.18;45.00;101748.28;2383610;28;46189;-85
2022/07/26 10:31:42;;;;;;;;;2.00;1.50;;;;;24.14;45.91;101742.28;2372132;28;45807;-86
2022/07/26 10:32:55;;;;;;;;;1.00;1.00;;;;;24.16;45.70;101743.03;2375397;28;46549;-85
2022/07/26 10:34:06;;;;;;;;;1.00;1.00;;;;;24.13;45.56;101737.03;2384104;28;45255;-86
2022/07/26 10:35:35;;;;;;;;;1.50;1.25;;;;;24.14;45.63;101741.44;2383838;28;45511;-85
2022/07/26 10:36:56;;;;;;;;;1.75;1.75;;;;;24.15;45.28;101741.31;2384681;28;45261;-86
2022/07/26 10:38:25;;;;;;;;;1.00;1.00;;;;;24.19;45.58;101741.09;2383367;28;45399;-86
2022/07/26 10:39:37;;;;;;;;;3.00;2.00;;;;;24.20;45.85;101740.13;2374368;28;45286;-86
2022/07/26 10:41:06;;;;;;;;;2.00;2.00;;;;;24.22;45.66;101741.72;2376952;28;47247;-86
2022/07/26 10:42:17;;;;;;;;;2.00;2.00;;;;;24.27;45.51;101750.28;2381203;28;45404;-87
2022/07/26 10:43:28;;;;;;;;;2.00;2.00;;;;;24.30;45.05;101748.38;2373607;28;48201;-85
2022/07/26 10:44:44;;;;;;;;;1.00;1.00;;;;;24.27;44.84;101744.91;2375964;28;45445;-86
2022/07/26 10:46:16;;;;;;;;;1.25;1.25;;;;;24.26;44.85;101743.22;2384248;28;46153;-85
2022/07/26 10:47:26;;;;;;;;;2.00;1.00;;;;;24.24;44.88;101747.81;2373424;28;46067;-87
2022/07/26 10:48:55;;;;;;;;;1.00;1.00;;;;;24.28;45.38;101743.97;2377024;28;45379;-86
2022/07/26 10:50:06;;;;;;;;;2.75;1.75;;;;;24.31;45.51;101744.69;2373314;28;45602;-87
2022/07/26 10:51:28;;;;;;;;;3.00;3.00;;;;;24.37;45.14;101745.06;2377212;28;47355;-86
2022/07/26 10:52:56;;;;;;;;;1.00;1.00;;;;;24.42;44.29;101746.56;2384168;28;44694;-86
2022/07/26 10:54:10;;;;;;;;;2.00;1.00;;;;;24.43;43.66;101743.75;2371379;28;47257;-86
2022/07/26 10:55:20;;;;;;;;;0.50;0.50;;;;;24.46;43.42;101737.28;2377672;28;45392;-86
2022/07/26 10:56:31;;;;;;;;;1.50;1.50;;;;;24.46;43.95;101738.16;2384209;28;46514;-86
2022/07/26 10:57:44;;;;;;;;;3.00;1.75;;;;;24.50;44.28;101745.00;2384794;28;45427;-87
2022/07/26 10:58:54;;;;;;;;;4.00;1.00;;;;;24.56;43.92;101745.50;2384042;28;46179;-86
2022/07/26 11:00:14;;;;;;;;;3.25;2.00;;;;;24.58;43.23;101738.16;2383183;28;45480;-85
2022/07/26 11:01:38;;;;;;;;;2.00;2.00;;;;;24.61;43.54;101737.94;2384911;28;45546;-87
2022/07/26 11:02:56;;;;;;;;;1.50;1.00;;;;;24.65;44.21;101735.84;2379199;28;45240;-86
2022/07/26 11:04:21;;;;;;;;;0.50;0.00;;;;;24.70;44.19;101731.84;2379436;28;46408;-82
2022/07/26 11:05:33;;;;;;;;;2.50;1.00;;;;;24.76;43.56;101743.09;2374144;28;45345;-82
2022/07/26 11:06:44;;;;;;;;;2.00;1.75;;;;;24.80;43.30;101739.16;2384554;28;45503;-82
2022/07/26 11:08:09;;;;;;;;;2.00;2.00;;;;;24.84;42.26;101735.28;2384662;28;44674;-82